Hlavní strana
METAR-TAF:

METAR-TAF

Letiště :

Letecká základna Aviano

Aviano, Itálie

zeměpisná šířka: 46-02N, zeměpisná délka: 012-36E, výška: 128 m

Aktuální stav počasí

Zpráva byla vytvořena před 25 minutami, v 09:55 UTC
Jihojihozápadní vítr 3 kt
Teplota 31°C
Vlhkost vzduchu 49%
Tlak 1017 hPa
Viditelnost 10 km a více
Skoro jasno ve výšce 9000 ft

METAR: LIPA 180955Z 21003KT 9999 FEW090 31/19 Q1017 RMK FEW VIS MIN 9999 WIND THR05 00000KT WIND THR23 /////KT A3005 BLU

Čas: 12:20 (10:20 UTC)

Předpověď počasí

Zpráva byla vytvořena před 2 hodinami a 20 minutami, v 08:00 UTC
Předpověď platná od 18 v 09 UTC do 18 v 18 UTC
vítr z různých směrů 4 kt
Viditelnost 10 km a více
Skoro jasno ve výšce 8000 ft

TAF: LIPA 180800Z 1809/1818 VRB04KT 9999 FEW080

Stav a předpovědi počasí z více než 4 000 letišť (zprávy METAR a TAF).

Červené a žluté tečky na mapě představují dostupné meteorologické stanice.

Když kurzor umístíte na tečku, zobrazí se název stanice.

Pak kliknutím zobrazíte stav a předpověď počasí.

Chcete-li změnit mapu, kliknutím na zelené tlačítko se znaménkem +mapu přiblížíte, kliknutím na zelené tlačítko se znaménkem – mapu oddálíte a kliknutím na zelené šipky přejdete na sousední mapy.


METAR-TAF: